Time;durP1;ratioP1;P1;durP2;ratioP2;P2;SDS_P1;SDS_P2;PMS_P1;PMS_P2;Temp;Humidity;BMP_temperature;BMP_pressure;BME280_temperature;BME280_humidity;BME280_pressure;Samples;Min_cycle;Max_cycle;Signal;HPM_P1;HPM_P2
2022/08/21 00:02:23;;;;;;;3.10;0.95;;;;;;;13.82;48.93;101628.56;4965586;28;20039;-76
2022/08/21 00:04:48;;;;;;;4.97;1.48;;;;;;;13.91;48.91;101622.09;4948559;28;20057;-76
2022/08/21 00:07:14;;;;;;;4.00;1.08;;;;;;;13.79;49.04;101618.19;4962054;28;20039;-76
2022/08/21 00:09:40;;;;;;;1.35;0.80;;;;;;;13.87;48.51;101620.50;4965823;28;20043;-75
2022/08/21 00:12:06;;;;;;;6.13;0.98;;;;;;;13.83;48.62;101617.16;4967297;28;20046;-75
2022/08/21 00:14:32;;;;;;;3.28;1.67;;;;;;;13.73;48.65;101618.44;4982694;28;20630;-75
2022/08/21 00:16:58;;;;;;;4.35;1.30;;;;;;;13.80;48.92;101612.00;4981185;28;20070;-76
2022/08/21 00:19:24;;;;;;;7.22;1.55;;;;;;;13.81;48.81;101611.13;4982733;28;20098;-75
2022/08/21 00:21:51;;;;;;;9.13;1.42;;;;;;;13.81;48.29;101611.13;4981411;28;20072;-75
2022/08/21 00:24:18;;;;;;;3.55;1.50;;;;;;;13.79;48.53;101612.94;4984517;28;20061;-75
2022/08/21 00:26:44;;;;;;;3.08;1.17;;;;;;;13.79;48.71;101612.09;4982541;28;20057;-76
2022/08/21 00:29:09;;;;;;;4.07;1.20;;;;;;;13.82;48.47;101611.97;4983835;28;20063;-76
2022/08/21 00:31:35;;;;;;;4.63;1.05;;;;;;;13.76;48.63;101607.81;4989494;28;20089;-78
2022/08/21 00:34:01;;;;;;;5.97;1.58;;;;;;;13.78;48.80;101610.38;4966855;28;20078;-76
2022/08/21 00:36:27;;;;;;;5.97;1.15;;;;;;;13.68;48.62;101599.41;4965646;28;20053;-77
2022/08/21 00:38:53;;;;;;;3.47;0.85;;;;;;;13.64;48.93;101603.06;4982302;28;20149;-75
2022/08/21 00:41:18;;;;;;;5.05;2.28;;;;;;;13.68;48.89;101600.25;4988330;28;20506;-76
2022/08/21 00:43:44;;;;;;;2.58;1.02;;;;;;;13.62;48.80;101595.25;4977973;28;20125;-78
2022/08/21 00:46:10;;;;;;;3.08;1.10;;;;;;;13.66;48.76;101593.34;4967988;28;20066;-77
2022/08/21 00:48:35;;;;;;;2.30;1.42;;;;;;;13.62;48.48;101595.25;4962714;28;20057;-75
2022/08/21 00:51:13;;;;;;;5.53;1.55;;;;;;;13.54;48.46;101592.06;4954099;28;20041;-75
2022/08/21 00:53:41;;;;;;;4.13;0.93;;;;;;;13.52;48.69;101599.16;4982149;28;21079;-76
2022/08/21 00:56:10;;;;;;;2.75;1.05;;;;;;;13.55;48.61;101598.16;4975797;28;20033;-77
2022/08/21 00:58:37;;;;;;;2.70;1.73;;;;;;;13.52;48.87;101596.53;4990529;28;20054;-75
2022/08/21 01:01:05;;;;;;;4.22;1.25;;;;;;;13.51;48.73;101603.53;4983523;28;20489;-75
2022/08/21 01:03:31;;;;;;;4.38;1.65;;;;;;;13.52;48.68;101602.63;4982775;28;20084;-76
2022/08/21 01:05:56;;;;;;;2.88;1.40;;;;;;;13.57;48.53;101601.63;4979373;28;20109;-77
2022/08/21 01:08:23;;;;;;;5.68;2.00;;;;;;;13.49;48.46;101600.09;4994893;28;20050;-76
2022/08/21 01:10:49;;;;;;;6.95;1.15;;;;;;;13.37;48.69;101599.78;4996783;28;20030;-76
2022/08/21 01:13:18;;;;;;;7.60;1.55;;;;;;;13.27;48.95;101599.28;4958407;28;20050;-77
2022/08/21 01:15:46;;;;;;;3.50;1.50;;;;;;;13.34;48.73;101598.13;4974094;28;20404;-76
2022/08/21 01:18:14;;;;;;;8.88;2.25;;;;;;;13.27;49.15;101608.03;4976944;28;20648;-77
2022/08/21 01:20:44;;;;;;;4.03;1.25;;;;;;;13.28;49.17;101601.00;4976409;28;20045;-76
2022/08/21 01:23:09;;;;;;;4.43;1.98;;;;;;;13.27;49.07;101599.28;4980885;28;22082;-77
2022/08/21 01:25:35;;;;;;;3.70;1.60;;;;;;;13.37;48.89;101605.03;4983077;28;20038;-73
2022/08/21 01:28:08;;;;;;;4.28;1.92;;;;;;;13.34;48.66;101611.25;4987469;28;20100;-77
2022/08/21 01:30:36;;;;;;;9.27;2.50;;;;;;;13.21;48.81;101603.00;4964196;28;20181;-73
2022/08/21 01:33:02;;;;;;;3.78;1.65;;;;;;;13.02;49.38;101600.22;4971082;28;20057;-75
2022/08/21 01:35:27;;;;;;;3.17;1.40;;;;;;;13.04;49.65;101601.03;4958753;28;20039;-75
2022/08/21 01:37:53;;;;;;;3.10;1.85;;;;;;;13.00;49.62;101607.31;4968174;28;20121;-75
2022/08/21 01:40:18;;;;;;;2.60;2.25;;;;;;;12.94;49.99;101606.69;4981360;28;20168;-74
2022/08/21 01:42:45;;;;;;;7.80;2.85;;;;;;;12.81;50.08;101608.94;4981588;28;20047;-76
2022/08/21 01:45:12;;;;;;;5.55;3.08;;;;;;;12.76;50.48;101610.88;4995088;28;20428;-74
2022/08/21 01:47:38;;;;;;;4.75;2.53;;;;;;;12.83;50.75;101609.75;4982691;28;20050;-74
2022/08/21 01:50:11;;;;;;;7.95;2.50;;;;;;;12.97;50.31;101611.84;4982145;28;20116;-76
2022/08/21 01:52:37;;;;;;;4.20;2.13;;;;;;;12.99;50.00;101610.84;4976202;28;20062;-75
2022/08/21 01:55:05;;;;;;;7.05;2.95;;;;;;;13.03;50.05;101606.38;4938611;28;20225;-75
2022/08/21 01:57:32;;;;;;;6.10;2.58;;;;;;;12.96;50.04;101610.09;4973901;28;20054;-75
2022/08/21 01:59:58;;;;;;;9.25;3.15;;;;;;;12.86;50.04;101612.25;4978484;28;20038;-73
2022/08/21 02:02:23;;;;;;;7.82;2.63;;;;;;;12.74;50.57;101600.44;4981930;28;20162;-76
2022/08/21 02:04:49;;;;;;;6.45;3.40;;;;;;;12.66;50.58;101599.84;4984819;28;20413;-73
2022/08/21 02:07:14;;;;;;;3.17;1.80;;;;;;;12.72;50.72;101604.06;4981725;28;20109;-76
2022/08/21 02:09:44;;;;;;;10.27;2.33;;;;;;;12.75;50.51;101601.31;4981729;28;20041;-77
2022/08/21 02:12:11;;;;;;;5.85;2.40;;;;;;;12.85;50.46;101602.69;4984207;28;22064;-75
2022/08/21 02:14:36;;;;;;;4.28;2.65;;;;;;;12.78;50.49;101601.16;4979218;28;20097;-75
2022/08/21 02:17:03;;;;;;;6.32;2.67;;;;;;;12.63;50.59;101595.56;4960988;28;20030;-76
2022/08/21 02:19:29;;;;;;;5.35;2.30;;;;;;;12.51;51.23;101593.38;4962554;28;20030;-76
2022/08/21 02:21:54;;;;;;;7.55;3.28;;;;;;;12.45;51.47;101593.63;4952057;28;20034;-75
2022/08/21 02:24:20;;;;;;;5.93;2.97;;;;;;;12.34;52.02;101586.16;4976614;28;20449;-75
2022/08/21 02:26:45;;;;;;;4.13;3.22;;;;;;;12.38;52.00;101585.13;4962677;28;20085;-77
2022/08/21 02:29:11;;;;;;;8.70;3.38;;;;;;;12.37;52.02;101580.78;4944412;28;20738;-76
2022/08/21 02:31:36;;;;;;;9.63;2.92;;;;;;;12.42;52.02;101580.63;4949977;28;20031;-76
2022/08/21 02:34:02;;;;;;;5.32;2.00;;;;;;;12.44;51.93;101570.94;4975047;28;20105;-75
2022/08/21 02:36:27;;;;;;;4.28;2.38;;;;;;;12.53;51.78;101575.84;4958110;28;20045;-77
2022/08/21 02:38:53;;;;;;;3.25;2.28;;;;;;;12.45;51.84;101570.03;4959951;28;20421;-75
2022/08/21 02:41:20;;;;;;;9.27;3.60;;;;;;;12.37;52.00;101564.22;4957766;28;20129;-75
2022/08/21 02:43:47;;;;;;;3.60;2.63;;;;;;;12.26;52.04;101570.69;4956571;28;20134;-76
2022/08/21 02:46:16;;;;;;;9.15;3.25;;;;;;;12.23;52.26;101569.97;4938952;28;20034;-76
2022/08/21 02:48:41;;;;;;;4.57;3.00;;;;;;;12.17;52.80;101568.41;4967452;28;20051;-77
2022/08/21 02:51:10;;;;;;;5.75;2.55;;;;;;;12.14;52.71;101562.44;4938847;28;20034;-77
2022/08/21 02:53:37;;;;;;;5.95;2.80;;;;;;;12.12;52.65;101559.00;4961945;28;20051;-77
2022/08/21 02:56:05;;;;;;;12.07;4.22;;;;;;;12.07;52.69;101553.94;4946868;28;20322;-75
2022/08/21 02:58:34;;;;;;;7.13;2.80;;;;;;;12.07;52.71;101556.56;4949500;28;20046;-75
2022/08/21 03:01:00;;;;;;;4.85;3.05;;;;;;;12.05;52.74;101547.88;4942789;28;20065;-79
2022/08/21 03:03:28;;;;;;;6.18;2.33;;;;;;;12.05;53.17;101548.75;4947144;28;20046;-80
2022/08/21 03:05:54;;;;;;;7.05;2.30;;;;;;;12.08;52.79;101547.78;4973260;28;20038;-75
2022/08/21 03:08:20;;;;;;;4.35;2.22;;;;;;;12.10;52.66;101551.19;4971396;28;20054;-77
2022/08/21 03:10:49;;;;;;;4.60;2.55;;;;;;;12.15;52.33;101549.25;4962934;28;20034;-76
2022/08/21 03:13:15;;;;;;;5.57;3.10;;;;;;;12.16;52.59;101545.75;4961951;28;20490;-76
2022/08/21 03:15:42;;;;;;;4.25;3.05;;;;;;;12.23;52.01;101551.63;4962568;28;20034;-75
2022/08/21 03:18:08;;;;;;;4.50;2.35;;;;;;;12.21;51.99;101543.78;4975250;28;20049;-79
2022/08/21 03:20:36;;;;;;;5.20;2.65;;;;;;;12.20;52.15;101544.72;4966227;28;20045;-77
2022/08/21 03:23:03;;;;;;;5.95;3.47;;;;;;;12.27;52.10;101537.50;4948292;28;20600;-76
2022/08/21 03:25:31;;;;;;;6.55;2.40;;;;;;;12.29;52.03;101544.38;4958029;28;20493;-75
2022/08/21 03:27:57;;;;;;;2.80;2.10;;;;;;;12.28;51.86;101534.78;4972952;28;20129;-75
2022/08/21 03:30:23;;;;;;;6.50;3.17;;;;;;;12.26;52.18;101539.22;4964463;28;20393;-75
2022/08/21 03:32:49;;;;;;;4.05;2.33;;;;;;;12.22;52.07;101535.03;4950504;28;20093;-74
2022/08/21 03:35:15;;;;;;;4.38;2.67;;;;;;;12.18;52.43;101533.44;4978906;28;20117;-75
2022/08/21 03:37:41;;;;;;;8.68;2.72;;;;;;;12.14;52.12;101531.84;4957777;28;20582;-75
2022/08/21 03:40:08;;;;;;;4.97;2.20;;;;;;;12.10;52.34;101522.38;4937655;28;20035;-75
2022/08/21 03:42:34;;;;;;;5.47;3.08;;;;;;;12.19;52.22;101524.66;4963632;28;20449;-75
2022/08/21 03:45:00;;;;;;;6.25;3.58;;;;;;;12.09;52.86;101528.53;4980049;28;20042;-77
2022/08/21 03:47:26;;;;;;;4.85;3.25;;;;;;;12.13;52.71;101527.47;4988125;28;20046;-77
2022/08/21 03:49:52;;;;;;;4.68;2.67;;;;;;;12.14;52.62;101526.59;4949357;28;20026;-75
2022/08/21 03:52:18;;;;;;;7.28;3.55;;;;;;;12.21;52.21;101527.22;4946298;28;20039;-77
2022/08/21 03:54:45;;;;;;;8.20;3.22;;;;;;;12.19;52.42;101524.66;4976971;28;20145;-76
2022/08/21 03:57:10;;;;;;;5.65;2.80;;;;;;;12.17;52.55;101526.47;4957996;28;20047;-76
2022/08/21 03:59:37;;;;;;;5.63;3.15;;;;;;;12.14;52.38;101523.97;4961528;28;20038;-77
2022/08/21 04:02:05;;;;;;;3.72;2.42;;;;;;;12.09;52.31;101525.91;4943211;28;20042;-75
2022/08/21 04:04:30;;;;;;;7.53;3.25;;;;;;;12.09;52.37;101523.28;4995248;28;20493;-75
2022/08/21 04:06:57;;;;;;;4.55;3.40;;;;;;;12.08;52.31;101526.81;4984093;28;20038;-77
2022/08/21 04:09:24;;;;;;;5.72;3.60;;;;;;;12.07;52.40;101536.44;4980343;28;20041;-75
2022/08/21 04:11:49;;;;;;;4.45;3.08;;;;;;;11.95;52.88;101530.78;4978090;28;20038;-75
2022/08/21 04:14:16;;;;;;;4.75;3.00;;;;;;;11.82;52.71;101531.22;4976286;28;20759;-77
2022/08/21 04:16:42;;;;;;;4.20;3.30;;;;;;;11.91;52.52;101529.16;4971698;28;20050;-74
2022/08/21 04:19:12;;;;;;;3.92;2.97;;;;;;;11.92;52.54;101530.88;4962860;28;20073;-75
2022/08/21 04:21:39;;;;;;;5.00;2.78;;;;;;;11.81;52.49;101532.09;4963924;28;20034;-75
2022/08/21 04:24:07;;;;;;;5.93;3.22;;;;;;;11.73;52.83;101526.28;4993300;28;20137;-75
2022/08/21 04:26:34;;;;;;;7.95;3.80;;;;;;;11.65;53.23;101528.28;4968597;28;20038;-75
2022/08/21 04:29:00;;;;;;;9.05;4.43;;;;;;;11.56;53.25;101528.59;4964326;28;20046;-77
2022/08/21 04:31:26;;;;;;;9.32;4.35;;;;;;;11.50;53.97;101529.66;4959148;28;20620;-75
2022/08/21 04:33:51;;;;;;;7.22;4.28;;;;;;;11.48;53.95;101535.84;4958654;28;20043;-77
2022/08/21 04:36:17;;;;;;;11.15;5.15;;;;;;;11.51;54.09;101535.72;4965972;28;20058;-79
2022/08/21 04:38:43;;;;;;;7.57;4.28;;;;;;;11.52;54.38;101537.47;4979455;28;20041;-75
2022/08/21 04:41:09;;;;;;;7.32;4.70;;;;;;;11.52;54.25;101532.22;4965891;28;20038;-76
2022/08/21 04:43:35;;;;;;;8.68;4.80;;;;;;;11.53;54.52;101534.81;4972549;28;20050;-77
2022/08/21 04:46:00;;;;;;;7.32;5.22;;;;;;;11.59;54.81;101537.19;4983252;28;20042;-76
2022/08/21 04:48:27;;;;;;;13.23;4.95;;;;;;;11.59;54.59;101545.03;4979451;28;20043;-76
2022/08/21 04:51:11;;;;;;;13.50;5.05;;;;;;;11.57;54.87;101551.25;4979116;28;20184;-76
2022/08/21 04:53:45;;;;;;;11.82;4.53;;;;;;;11.63;54.83;101543.19;4991252;28;20049;-76
2022/08/21 04:56:26;;;;;;;7.75;5.25;;;;;;;11.70;54.36;101538.59;4980623;28;20034;-75
2022/08/21 04:58:55;;;;;;;6.00;5.05;;;;;;;11.67;54.66;101543.03;4977971;28;20056;-75
2022/08/21 05:01:24;;;;;;;7.97;5.18;;;;;;;11.73;54.71;101547.22;4967941;28;20088;-75
2022/08/21 05:03:55;;;;;;;9.70;5.65;;;;;;;11.75;54.62;101547.16;4962156;28;20494;-74
2022/08/21 05:06:21;;;;;;;5.97;5.10;;;;;;;11.80;54.73;101545.28;4938807;28;20156;-77
2022/08/21 05:08:49;;;;;;;7.78;5.65;;;;;;;11.86;54.87;101550.28;4977031;28;20132;-75
2022/08/21 05:11:15;;;;;;;9.95;4.82;;;;;;;11.95;54.53;101549.09;4964161;28;20338;-76
2022/08/21 05:13:41;;;;;;;10.77;5.47;;;;;;;11.98;54.58;101542.00;4973908;28;20042;-75
2022/08/21 05:16:07;;;;;;;8.40;4.57;;;;;;;12.04;54.71;101540.91;4996658;28;20479;-76
2022/08/21 05:18:32;;;;;;;11.30;5.18;;;;;;;12.17;54.73;101542.19;4971091;28;20805;-77
2022/08/21 05:20:58;;;;;;;10.20;5.32;;;;;;;12.26;54.29;101536.63;4960808;28;20426;-76
2022/08/21 05:23:24;;;;;;;10.57;6.18;;;;;;;12.40;54.42;101544.00;4946002;28;20110;-75
2022/08/21 05:25:51;;;;;;;10.02;6.30;;;;;;;12.64;54.52;101541.34;4955030;28;20049;-75
2022/08/21 05:28:17;;;;;;;15.30;4.95;;;;;;;13.89;52.10;101540.66;4951472;28;20049;-77
2022/08/21 05:30:43;;;;;;;11.40;6.15;;;;;;;14.61;49.96;101543.66;4980556;28;20044;-77
2022/08/21 05:33:09;;;;;;;12.07;5.30;;;;;;;15.22;48.51;101534.66;4946396;28;20043;-76
2022/08/21 05:35:35;;;;;;;6.88;4.65;;;;;;;17.28;44.04;101539.53;4954749;28;20063;-74
2022/08/21 05:38:01;;;;;;;5.53;3.08;;;;;;;19.06;41.00;101544.50;4969692;28;20051;-76
2022/08/21 05:40:27;;;;;;;8.90;3.95;;;;;;;20.23;36.17;101528.66;4965150;28;20526;-74
2022/08/21 05:42:54;;;;;;;6.10;3.28;;;;;;;21.46;34.06;101538.25;4975522;28;20101;-75
2022/08/21 05:45:21;;;;;;;6.75;3.75;;;;;;;22.47;31.78;101530.41;4986785;28;20129;-74
2022/08/21 05:47:46;;;;;;;7.53;2.90;;;;;;;22.90;33.18;101532.25;4982718;28;20077;-76
2022/08/21 05:50:12;;;;;;;5.03;2.70;;;;;;;23.87;30.29;101531.28;4981376;28;20135;-77
2022/08/21 05:52:37;;;;;;;7.72;2.95;;;;;;;24.39;28.17;101532.03;4979497;28;20045;-77
2022/08/21 05:55:04;;;;;;;5.93;2.92;;;;;;;24.77;27.49;101527.78;4966814;28;20035;-76
2022/08/21 05:57:29;;;;;;;7.82;2.97;;;;;;;24.51;27.98;101528.31;4982253;28;20751;-76
2022/08/21 05:59:55;;;;;;;4.07;2.58;;;;;;;25.36;27.78;101526.81;4979287;28;20046;-75
2022/08/21 06:02:21;;;;;;;7.18;2.97;;;;;;;25.63;26.95;101531.44;4982950;28;20046;-77
2022/08/21 06:04:47;;;;;;;5.80;2.47;;;;;;;25.87;26.64;101530.09;4981129;28;20088;-76
2022/08/21 06:07:14;;;;;;;8.93;1.92;;;;;;;27.13;26.03;101516.94;4980132;28;20078;-76
2022/08/21 06:09:40;;;;;;;4.68;2.50;;;;;;;27.07;24.28;101519.22;4982518;28;20100;-75
2022/08/21 06:12:08;;;;;;;5.68;3.03;;;;;;;27.25;24.68;101513.00;4978989;28;20125;-76
2022/08/21 06:14:35;;;;;;;3.97;2.08;;;;;;;26.90;25.24;101518.22;4982007;28;20030;-76
2022/08/21 06:17:09;;;;;;;7.15;2.40;;;;;;;27.43;24.30;101519.19;4993994;28;20748;-76
2022/08/21 06:19:35;;;;;;;5.07;1.60;;;;;;;27.67;24.73;101509.63;4970556;28;20042;-76
2022/08/21 06:22:01;;;;;;;3.22;2.05;;;;;;;27.51;24.44;101516.53;4980511;28;20506;-76
2022/08/21 06:24:27;;;;;;;2.97;1.73;;;;;;;28.49;23.25;101504.59;4981289;28;20534;-74
2022/08/21 06:26:53;;;;;;;1.98;1.55;;;;;;;29.11;22.48;101510.41;4993507;28;20149;-77
2022/08/21 06:29:19;;;;;;;3.85;1.95;;;;;;;29.36;22.91;101507.69;4980861;28;20086;-75
2022/08/21 06:31:46;;;;;;;5.93;1.80;;;;;;;29.92;21.84;101513.09;4979372;28;20106;-75
2022/08/21 06:34:12;;;;;;;5.97;2.65;;;;;;;29.72;21.29;101507.28;4979997;28;20121;-75
2022/08/21 06:36:38;;;;;;;3.13;2.22;;;;;;;29.95;21.24;101513.59;4983256;28;20140;-75
2022/08/21 06:39:04;;;;;;;5.90;2.05;;;;;;;28.54;22.71;101507.59;4979579;28;20177;-78
2022/08/21 06:41:30;;;;;;;2.92;2.10;;;;;;;29.87;21.60;101518.19;4979053;28;20036;-77
2022/08/21 06:43:56;;;;;;;5.95;2.05;;;;;;;29.94;21.64;101520.00;4982583;28;20049;-76
2022/08/21 06:46:24;;;;;;;6.28;1.88;;;;;;;28.68;22.75;101520.44;4985823;28;20027;-75
2022/08/21 06:48:49;;;;;;;4.75;2.17;;;;;;;27.91;23.78;101515.09;4963711;28;20138;-76
2022/08/21 06:51:15;;;;;;;4.38;1.27;;;;;;;28.97;22.40;101513.75;4951376;28;20237;-76
2022/08/21 06:53:41;;;;;;;2.72;1.55;;;;;;;28.68;22.87;101511.53;4960659;28;20051;-76
2022/08/21 06:56:06;;;;;;;3.95;1.60;;;;;;;27.55;24.04;101521.59;4959486;28;20031;-77
2022/08/21 06:58:32;;;;;;;2.50;1.30;;;;;;;27.73;25.71;101514.34;4960226;28;20560;-76
2022/08/21 07:00:58;;;;;;;4.43;2.03;;;;;;;29.65;22.55;101517.06;4964961;28;20034;-75
2022/08/21 07:03:30;;;;;;;2.85;1.45;;;;;;;30.55;21.33;101514.00;4951767;28;20042;-76
2022/08/21 07:05:58;;;;;;;3.35;1.65;;;;;;;30.13;21.76;101510.69;4958353;28;20065;-77
2022/08/21 07:08:24;;;;;;;5.85;1.45;;;;;;;30.55;21.77;101514.81;4971858;28;20042;-75
2022/08/21 07:10:51;;;;;;;5.88;1.50;;;;;;;30.59;20.59;101515.31;4959135;28;20334;-75
2022/08/21 07:13:17;;;;;;;4.40;1.30;;;;;;;30.24;21.26;101509.41;4973521;28;20045;-76
2022/08/21 07:15:43;;;;;;;7.95;1.63;;;;;;;28.90;22.70;101501.94;4977695;28;20053;-77
2022/08/21 07:18:08;;;;;;;8.23;1.85;;;;;;;29.31;22.61;101504.66;4978507;28;20046;-75
2022/08/21 07:20:34;;;;;;;5.00;1.35;;;;;;;29.04;23.75;101497.78;4976359;28;20047;-76
2022/08/21 07:23:03;;;;;;;4.53;1.33;;;;;;;30.13;22.98;101504.44;4969944;28;20043;-75
2022/08/21 07:25:29;;;;;;;7.25;2.63;;;;;;;29.14;22.64;101491.22;4961093;28;20031;-75
2022/08/21 07:27:55;;;;;;;7.72;1.67;;;;;;;28.32;24.04;101493.81;4972596;28;20677;-75
2022/08/21 07:30:21;;;;;;;8.25;2.30;;;;;;;26.41;26.40;101501.63;4971905;28;20104;-75
2022/08/21 07:32:49;;;;;;;6.18;1.85;;;;;;;27.03;26.17;101496.38;4987508;28;20137;-76
2022/08/21 07:35:16;;;;;;;5.97;1.35;;;;;;;26.16;26.69;101503.22;4960912;28;20042;-76
2022/08/21 07:37:41;;;;;;;6.43;1.23;;;;;;;27.35;26.51;101497.66;4980582;28;20493;-77
2022/08/21 07:40:07;;;;;;;7.15;1.38;;;;;;;28.81;24.26;101492.22;4982092;28;20065;-78
2022/08/21 07:42:33;;;;;;;4.70;1.90;;;;;;;28.15;24.62;101491.25;4982024;28;20073;-78
2022/08/21 07:44:58;;;;;;;4.25;1.35;;;;;;;29.27;23.42;101498.78;4982267;28;20061;-77
2022/08/21 07:47:24;;;;;;;9.15;2.15;;;;;;;30.22;22.90;101497.13;4979276;28;20096;-76
2022/08/21 07:49:50;;;;;;;9.50;1.63;;;;;;;28.80;25.11;101490.53;4978186;28;21628;-75
2022/08/21 07:52:15;;;;;;;4.45;1.40;;;;;;;28.15;25.50;101492.06;4958614;28;20481;-78
2022/08/21 07:54:41;;;;;;;6.63;1.60;;;;;;;28.50;25.02;101492.81;4979830;28;20038;-76
2022/08/21 07:57:06;;;;;;;3.25;1.30;;;;;;;26.57;27.90;101497.44;4964269;28;20034;-77
2022/08/21 07:59:32;;;;;;;7.80;1.48;;;;;;;28.18;25.66;101490.91;4982709;28;20142;-78
2022/08/21 08:01:58;;;;;;;7.13;0.98;;;;;;;29.73;24.29;101490.13;4968085;28;20121;-78
2022/08/21 08:04:23;;;;;;;4.07;1.27;;;;;;;29.75;23.69;101490.75;4983929;28;20147;-76
2022/08/21 08:06:49;;;;;;;4.70;0.82;;;;;;;28.60;25.51;101490.81;4985083;28;20038;-77
2022/08/21 08:09:15;;;;;;;3.97;1.40;;;;;;;29.43;23.85;101497.91;4984266;28;20033;-76
2022/08/21 08:11:43;;;;;;;4.28;1.27;;;;;;;30.15;23.49;101502.41;4980679;28;20105;-77
2022/08/21 08:14:09;;;;;;;4.00;1.30;;;;;;;30.20;24.02;101500.03;4960695;28;20098;-78
2022/08/21 08:16:35;;;;;;;5.25;1.30;;;;;;;29.74;24.03;101497.16;4972453;28;20106;-77
2022/08/21 08:19:00;;;;;;;5.45;1.10;;;;;;;29.67;23.85;101493.50;4982810;28;20132;-77
2022/08/21 08:21:27;;;;;;;3.30;1.38;;;;;;;29.09;24.50;101496.25;4981286;28;20038;-78
2022/08/21 08:23:53;;;;;;;4.15;0.85;;;;;;;29.92;23.66;101503.16;4980510;28;20156;-78
2022/08/21 08:26:18;;;;;;;4.47;0.60;;;;;;;30.51;22.51;101501.84;4983567;28;20106;-76
2022/08/21 08:28:45;;;;;;;5.32;0.80;;;;;;;29.19;24.43;101503.31;4993877;28;20042;-75
2022/08/21 08:31:11;;;;;;;11.55;1.25;;;;;;;29.00;24.47;101501.81;4980226;28;20030;-76
2022/08/21 08:33:36;;;;;;;5.53;1.02;;;;;;;29.67;24.14;101509.66;4994985;28;20092;-77
2022/08/21 08:36:03;;;;;;;3.40;0.75;;;;;;;28.81;24.67;101505.66;4980939;28;20133;-79
2022/08/21 08:38:28;;;;;;;4.50;0.93;;;;;;;28.81;24.94;101501.09;4999537;28;20043;-76
2022/08/21 08:41:05;;;;;;;6.57;0.77;;;;;;;29.42;23.80;101507.00;4983210;28;20096;-76
2022/08/21 08:43:33;;;;;;;3.40;0.40;;;;;;;29.30;24.71;101514.56;4971963;28;20069;-77
2022/08/21 08:46:03;;;;;;;3.92;0.57;;;;;;;30.86;23.08;101505.81;4981605;28;20699;-79
2022/08/21 08:48:38;;;;;;;2.80;0.57;;;;;;;28.63;25.93;101511.19;4980709;28;20042;-78
2022/08/21 08:51:09;;;;;;;4.10;0.55;;;;;;;29.68;24.81;101505.94;4978833;28;20476;-76
2022/08/21 08:53:47;;;;;;;4.45;1.20;;;;;;;28.30;26.11;101500.31;4980642;28;20042;-76
2022/08/21 08:56:12;;;;;;;10.02;1.33;;;;;;;26.56;28.57;101509.16;4992707;28;20031;-77
2022/08/21 08:58:43;;;;;;;5.20;0.60;;;;;;;28.84;26.15;101492.72;4971510;28;20093;-77
2022/08/21 09:01:20;;;;;;;4.43;0.60;;;;;;;29.83;24.75;101498.81;4979659;28;20031;-77
2022/08/21 09:03:49;;;;;;;3.78;0.38;;;;;;;28.00;25.70;101507.09;4957633;28;20080;-78
2022/08/21 09:06:39;;;;;;;3.58;1.00;;;;;;;27.44;26.71;101501.22;4966549;28;20046;-76
2022/08/21 09:09:18;;;;;;;6.22;1.17;;;;;;;25.39;29.16;101504.28;4979773;28;20053;-77
2022/08/21 09:12:03;;;;;;;4.22;0.57;;;;;;;24.89;30.17;101497.25;4983209;28;20037;-75
2022/08/21 09:14:47;;;;;;;6.10;1.15;;;;;;;25.03;31.01;101499.53;4969725;28;20042;-76
2022/08/21 09:17:16;;;;;;;6.32;0.95;;;;;;;25.16;30.88;101503.75;4988879;28;20238;-75
2022/08/21 09:20:13;;;;;;;4.63;0.40;;;;;;;26.76;28.02;101504.50;4964306;28;20617;-78
2022/08/21 09:23:08;;;;;;;6.90;0.52;;;;;;;26.36;28.28;101508.44;4981222;28;20055;-76
2022/08/21 09:26:01;;;;;;;4.75;1.05;;;;;;;26.48;27.52;101507.22;4949542;28;20051;-75
2022/08/21 09:28:31;;;;;;;5.93;0.70;;;;;;;25.76;28.60;101500.81;4980038;28;20038;-76
2022/08/21 09:31:02;;;;;;;6.22;0.70;;;;;;;25.60;27.57;101502.28;4992518;28;20038;-76
2022/08/21 09:33:28;;;;;;;7.03;1.10;;;;;;;25.51;27.93;101497.78;4979446;28;20496;-75
2022/08/21 09:35:58;;;;;;;6.10;0.50;;;;;;;26.41;27.23;101501.63;4979843;28;20042;-74
2022/08/21 09:38:28;;;;;;;6.35;0.82;;;;;;;24.88;28.66;101500.91;4995076;28;20048;-76
2022/08/21 09:41:09;;;;;;;3.13;0.60;;;;;;;25.77;28.19;101500.66;4977656;28;20044;-76
2022/08/21 09:43:35;;;;;;;4.95;0.63;;;;;;;25.29;28.49;101506.13;4981983;28;20053;-73
2022/08/21 09:46:09;;;;;;;4.00;0.57;;;;;;;24.81;28.83;101497.09;4984331;28;20037;-75
2022/08/21 09:48:48;;;;;;;7.25;0.70;;;;;;;26.07;28.12;101514.81;4976217;28;20682;-77
2022/08/21 09:51:29;;;;;;;4.45;0.80;;;;;;;24.99;29.34;101508.81;4994033;28;20053;-75
2022/08/21 09:53:57;;;;;;;;;;;;;;;24.33;31.32;101505.88;4964634;28;20066;-75
2022/08/21 09:59:19;;;;;;;7.13;1.45;;;;;;;25.43;28.50;101503.00;4996655;28;20061;-76
2022/08/21 10:01:48;;;;;;;3.25;0.95;;;;;;;25.39;28.63;101499.75;4993402;28;20068;-75
2022/08/21 10:04:15;;;;;;;3.63;0.40;;;;;;;25.33;28.82;101504.84;4956590;28;20048;-76
2022/08/21 10:06:41;;;;;;;7.20;1.17;;;;;;;24.56;29.89;101501.16;4974917;28;20084;-76
2022/08/21 10:09:12;;;;;;;7.03;0.80;;;;;;;25.33;29.21;101500.34;4993922;28;20125;-76
2022/08/21 10:11:40;;;;;;;6.85;0.90;;;;;;;25.61;27.80;101503.13;4977444;28;20100;-75
2022/08/21 10:14:19;;;;;;;6.70;1.05;;;;;;;26.06;28.22;101502.41;4974973;28;20081;-74
2022/08/21 10:16:48;;;;;;;5.88;0.50;;;;;;;27.06;27.29;101501.44;4983201;28;20034;-78
2022/08/21 10:19:29;;;;;;;2.88;0.47;;;;;;;26.83;25.98;101505.59;4977227;28;20046;-77
2022/08/21 10:22:30;;;;;;;5.90;0.88;;;;;;;27.25;25.87;101492.41;4975086;28;20039;-76
2022/08/21 10:25:26;;;;;;;4.90;0.98;;;;;;;26.77;26.24;101495.50;4970034;28;20033;-75
2022/08/21 10:28:20;;;;;;;7.20;0.80;;;;;;;26.01;26.96;101499.31;4974382;28;20062;-77
2022/08/21 10:30:51;;;;;;;6.72;0.85;;;;;;;26.16;27.80;101497.00;4974886;28;20057;-75
2022/08/21 10:33:17;;;;;;;;;;;;;;;26.12;27.19;101482.22;4981276;28;20509;-75
2022/08/21 10:35:51;;;;;;;2.40;0.50;;;;;;;26.18;26.46;101489.63;4994002;28;19920;-75
2022/08/21 10:38:57;;;;;;;4.03;0.50;;;;;;;26.59;26.35;101492.81;4993117;28;20046;-75
2022/08/21 10:41:42;;;;;;;15.73;0.85;;;;;;;25.57;26.68;101486.50;4968326;28;20106;-74
2022/08/21 10:44:28;;;;;;;5.38;0.70;;;;;;;25.59;26.62;101491.72;4991474;28;20129;-76
2022/08/21 10:47:02;;;;;;;2.13;0.45;;;;;;;25.92;26.75;101486.81;4965904;28;20037;-76
2022/08/21 10:49:53;;;;;;;2.88;0.43;;;;;;;25.97;27.74;101497.91;4973458;28;20507;-76
2022/08/21 10:52:25;;;;;;;;;;;;;;;25.18;26.94;101485.72;4980693;28;20663;-78
2022/08/21 10:55:06;;;;;;;3.60;0.50;;;;;;;25.51;28.23;101496.91;4976522;28;20064;-76
2022/08/21 10:57:54;;;;;;;5.60;0.35;;;;;;;25.84;25.14;101488.41;4960952;28;20104;-77
2022/08/21 11:00:29;;;;;;;4.32;0.30;;;;;;;25.77;26.65;101489.94;4988423;28;20034;-78
2022/08/21 11:03:07;;;;;;;2.10;0.40;;;;;;;26.05;26.64;101498.03;4983483;28;20058;-78
2022/08/21 11:05:47;;;;;;;6.57;0.88;;;;;;;26.25;25.87;101499.63;4995193;28;20053;-76
2022/08/21 11:08:31;;;;;;;4.40;0.55;;;;;;;26.98;25.03;101493.31;4984534;28;20047;-78
2022/08/21 11:11:03;;;;;;;2.00;0.30;;;;;;;27.44;24.94;101488.66;4962597;28;21472;-78
2022/08/21 11:13:47;;;;;;;3.28;0.40;;;;;;;27.48;23.74;101499.94;4951007;28;20038;-76
2022/08/21 11:16:22;;;;;;;4.68;0.93;;;;;;;25.84;26.24;101493.75;4962213;28;20019;-77
2022/08/21 11:19:04;;;;;;;3.80;0.40;;;;;;;25.90;25.72;101488.78;4986484;28;20171;-76
2022/08/21 11:21:42;;;;;;;3.83;0.30;;;;;;;26.76;24.90;101483.06;4959011;28;20486;-77
2022/08/21 11:24:38;;;;;;;3.50;0.35;;;;;;;27.41;23.57;101488.13;4977515;28;20043;-77
2022/08/21 11:27:14;;;;;;;3.50;0.30;;;;;;;27.02;24.51;101481.28;4952100;28;20612;-77
2022/08/21 11:29:43;;;;;;;2.80;0.68;;;;;;;27.32;24.70;101479.19;4963418;28;20828;-76
2022/08/21 11:32:27;;;;;;;2.55;0.30;;;;;;;27.27;24.12;101477.00;4969209;28;20504;-76
2022/08/21 11:35:23;;;;;;;2.13;0.85;;;;;;;26.68;24.77;101483.84;4975854;28;20124;-77
2022/08/21 11:38:32;;;;;;;3.58;0.52;;;;;;;25.65;25.56;101475.06;4993899;28;20113;-77